Time;durP1;ratioP1;P1;durP2;ratioP2;P2;SDS_P1;SDS_P2;PMS_P1;PMS_P2;Temp;Humidity;BMP_temperature;BMP_pressure;BME280_temperature;BME280_humidity;BME280_pressure;Samples;Min_cycle;Max_cycle;Signal;HPM_P1;HPM_P2
2022/11/23 00:02:40;;;;;;;51.57;23.87;;;0.80;99.90;;;;;;8368643;28;20622;-79
2022/11/23 00:06:41;;;;;;;36.87;20.20;;;0.60;99.90;;;;;;8368274;28;20238;-80
2022/11/23 00:10:42;;;;;;;37.83;18.63;;;0.40;99.90;;;;;;8369456;28;20189;-78
2022/11/23 00:14:42;;;;;;;33.27;18.53;;;0.30;99.90;;;;;;8371403;28;20210;-79
2022/11/23 00:18:44;;;;;;;32.43;16.73;;;0.20;99.90;;;;;;8370581;28;20178;-78
2022/11/23 00:22:44;;;;;;;40.30;18.30;;;0.10;99.90;;;;;;8370401;28;20213;-78
2022/11/23 00:26:45;;;;;;;51.10;23.33;;;0.10;99.90;;;;;;8370516;28;20244;-79
2022/11/23 00:30:50;;;;;;;42.17;21.17;;;0.10;99.90;;;;;;8369342;28;20224;-79
2022/11/23 00:34:50;;;;;;;36.00;18.47;;;0.10;99.90;;;;;;8370618;28;20258;-78
2022/11/23 00:38:53;;;;;;;31.73;15.67;;;0.10;99.90;;;;;;8367680;28;20177;-79
2022/11/23 00:42:54;;;;;;;29.60;15.67;;;0.10;99.90;;;;;;8383164;28;20185;-79
2022/11/23 00:46:55;;;;;;;36.90;17.60;;;0.10;99.90;;;;;;8367096;28;20185;-79
2022/11/23 00:50:56;;;;;;;32.50;16.43;;;0.10;99.90;;;;;;8359684;28;20181;-80
2022/11/23 00:54:56;;;;;;;33.40;17.73;;;0.10;99.90;;;;;;8363787;28;20210;-79
2022/11/23 00:58:59;;;;;;;30.40;16.03;;;0.10;99.90;;;;;;8364174;28;20290;-79
2022/11/23 01:03:00;;;;;;;31.87;17.90;;;0.10;99.90;;;;;;8381559;28;20177;-79
2022/11/23 01:07:01;;;;;;;31.57;16.50;;;0.10;99.90;;;;;;8367264;28;20279;-79
2022/11/23 01:11:12;;;;;;;35.80;18.33;;;0.20;99.90;;;;;;8365088;28;20182;-79
2022/11/23 01:15:13;;;;;;;31.93;17.50;;;0.20;99.90;;;;;;8372471;28;20211;-79
2022/11/23 01:19:18;;;;;;;35.80;17.47;;;0.20;99.90;;;;;;8367852;28;20174;-79
2022/11/23 01:23:19;;;;;;;34.20;19.50;;;0.30;99.90;;;;;;8363698;28;20181;-79
2022/11/23 01:27:20;;;;;;;35.40;16.97;;;0.30;99.90;;;;;;8370522;28;20255;-79
2022/11/23 01:31:23;;;;;;;40.10;19.53;;;0.40;99.90;;;;;;8365639;28;20249;-79
2022/11/23 01:35:23;;;;;;;35.53;17.57;;;0.40;99.90;;;;;;8373337;28;20204;-80
2022/11/23 01:39:24;;;;;;;33.63;16.87;;;0.40;99.90;;;;;;8375057;28;20173;-78
2022/11/23 01:43:26;;;;;;;30.30;16.67;;;0.40;99.90;;;;;;8377213;28;20299;-79
2022/11/23 01:47:27;;;;;;;30.13;16.70;;;0.40;99.90;;;;;;8381980;28;20566;-78
2022/11/23 01:51:29;;;;;;;32.37;15.37;;;0.40;99.90;;;;;;8376455;28;20544;-79
2022/11/23 01:55:31;;;;;;;31.67;17.23;;;0.40;99.90;;;;;;8374024;28;20204;-79
2022/11/23 01:59:34;;;;;;;34.60;17.60;;;0.50;99.90;;;;;;8380069;28;20208;-79
2022/11/23 02:03:36;;;;;;;33.40;17.90;;;0.50;99.90;;;;;;8375393;28;20213;-79
2022/11/23 02:07:39;;;;;;;31.57;17.13;;;0.50;99.90;;;;;;8372109;28;20212;-79
2022/11/23 02:11:40;;;;;;;29.80;16.70;;;0.50;99.90;;;;;;8372381;28;20602;-79
2022/11/23 02:15:41;;;;;;;39.17;19.00;;;0.50;99.90;;;;;;8378536;28;20231;-79
2022/11/23 02:19:58;;;;;;;31.13;17.27;;;0.50;99.90;;;;;;8373158;28;20708;-79
2022/11/23 02:24:16;;;;;;;28.63;15.90;;;0.50;99.90;;;;;;8379216;28;20238;-79
2022/11/23 02:28:25;;;;;;;31.00;17.03;;;0.50;99.90;;;;;;8371492;28;20196;-79
2022/11/23 02:32:27;;;;;;;30.67;16.87;;;0.50;99.90;;;;;;8373445;28;20189;-79
2022/11/23 02:36:40;;;;;;;35.33;18.23;;;0.50;99.90;;;;;;8373703;28;20232;-79
2022/11/23 02:40:41;;;;;;;27.33;15.30;;;0.40;99.90;;;;;;8379591;28;20182;-79
2022/11/23 02:45:24;;;;;;;33.00;16.73;;;0.40;99.90;;;;;;8375452;28;20186;-79
2022/11/23 02:49:25;;;;;;;31.97;17.40;;;0.30;99.90;;;;;;8370459;28;20213;-79
2022/11/23 02:53:25;;;;;;;34.83;17.10;;;0.20;99.90;;;;;;8378659;28;20217;-79
2022/11/23 02:57:26;;;;;;;30.27;15.70;;;0.10;99.90;;;;;;8375879;28;20243;-79
2022/11/23 03:01:28;;;;;;;25.67;15.33;;;0.10;99.90;;;;;;8377826;28;20169;-79
2022/11/23 03:05:29;;;;;;;32.03;17.27;;;0.10;99.90;;;;;;8373796;28;20194;-79
2022/11/23 03:09:31;;;;;;;28.97;16.50;;;0.10;99.90;;;;;;8356629;28;20180;-79
2022/11/23 03:13:32;;;;;;;28.57;16.53;;;0.00;99.90;;;;;;8374437;28;20231;-79
2022/11/23 03:17:34;;;;;;;30.97;15.63;;;0.00;99.90;;;;;;8370760;28;20675;-79
2022/11/23 03:21:35;;;;;;;27.10;15.43;;;0.00;99.90;;;;;;8367244;28;20238;-79
2022/11/23 03:25:36;;;;;;;32.40;17.80;;;0.00;99.90;;;;;;8380146;28;20199;-79
2022/11/23 03:29:37;;;;;;;34.77;18.97;;;0.00;99.90;;;;;;8369638;28;20205;-79
2022/11/23 03:33:37;;;;;;;40.47;21.57;;;0.00;99.90;;;;;;8370332;28;20212;-80
2022/11/23 03:37:38;;;;;;;39.33;20.60;;;0.10;99.90;;;;;;8368758;28;20212;-80
2022/11/23 03:41:39;;;;;;;43.67;25.37;;;0.10;99.90;;;;;;8369326;28;20196;-79
2022/11/23 03:45:41;;;;;;;46.27;25.80;;;0.10;99.90;;;;;;8370115;28;20193;-79
2022/11/23 03:49:42;;;;;;;41.73;24.03;;;0.00;99.90;;;;;;8372389;28;20220;-80
2022/11/23 03:53:42;;;;;;;39.43;22.83;;;0.00;99.90;;;;;;8370258;28;20313;-80
2022/11/23 03:57:43;;;;;;;40.83;21.10;;;0.00;99.90;;;;;;8369524;28;20213;-80
2022/11/23 04:01:44;;;;;;;35.73;19.30;;;0.00;99.90;;;;;;8369133;28;20212;-80
2022/11/23 04:05:45;;;;;;;29.93;17.53;;;-0.10;99.90;;;;;;8371176;28;20194;-79
2022/11/23 04:09:46;;;;;;;28.33;16.43;;;-0.10;99.90;;;;;;8368872;28;20470;-80
2022/11/23 04:13:47;;;;;;;46.13;21.53;;;-0.20;99.90;;;;;;8372435;28;20235;-80
2022/11/23 04:17:47;;;;;;;36.30;21.53;;;-0.20;99.90;;;;;;8367790;28;20186;-80
2022/11/23 04:21:50;;;;;;;34.50;21.07;;;-0.20;99.90;;;;;;8380021;28;20205;-80
2022/11/23 04:25:50;;;;;;;29.53;17.90;;;-0.20;99.90;;;;;;8368492;28;20181;-80
2022/11/23 04:29:51;;;;;;;43.37;21.47;;;-0.30;99.90;;;;;;8367953;28;20232;-79
2022/11/23 04:33:54;;;;;;;49.80;24.67;;;-0.30;99.90;;;;;;8366548;28;20228;-80
2022/11/23 04:37:55;;;;;;;59.33;26.93;;;-0.40;99.90;;;;;;8383054;28;20181;-80
2022/11/23 04:41:56;;;;;;;85.13;31.73;;;-0.40;99.90;;;;;;8369777;28;20192;-80
2022/11/23 04:45:57;;;;;;;65.10;27.13;;;-0.40;99.90;;;;;;8364095;28;20182;-80
2022/11/23 04:49:57;;;;;;;92.07;36.90;;;-0.50;99.90;;;;;;8368876;28;20189;-80
2022/11/23 04:53:58;;;;;;;66.73;30.77;;;-0.50;99.90;;;;;;8365604;28;20202;-80
2022/11/23 04:57:59;;;;;;;48.27;26.37;;;-0.60;99.90;;;;;;8368000;28;20251;-80
2022/11/23 05:02:00;;;;;;;52.07;26.90;;;-0.60;99.90;;;;;;8368286;28;20185;-80
2022/11/23 05:06:06;;;;;;;46.47;25.80;;;-0.60;99.90;;;;;;8370985;28;20398;-80
2022/11/23 05:10:07;;;;;;;82.23;40.50;;;-0.60;99.90;;;;;;8363373;28;20190;-80
2022/11/23 05:14:08;;;;;;;91.60;46.90;;;-0.60;99.90;;;;;;8372914;28;20205;-80
2022/11/23 05:18:10;;;;;;;68.80;33.90;;;-0.60;99.90;;;;;;8366244;28;20213;-80
2022/11/23 05:22:11;;;;;;;47.53;25.83;;;-0.70;99.90;;;;;;8367807;28;20182;-80
2022/11/23 05:26:12;;;;;;;45.97;23.90;;;-0.80;99.90;;;;;;8369951;28;20189;-80
2022/11/23 05:30:13;;;;;;;47.40;25.20;;;-0.80;99.90;;;;;;8372063;28;20200;-80
2022/11/23 05:34:15;;;;;;;72.80;39.13;;;-0.80;99.90;;;;;;8370412;28;20223;-80
2022/11/23 05:38:15;;;;;;;88.77;43.43;;;-0.80;99.90;;;;;;8363414;28;20476;-80
2022/11/23 05:42:16;;;;;;;77.33;41.00;;;-0.80;99.90;;;;;;8366618;28;20192;-80
2022/11/23 05:46:17;;;;;;;60.63;30.77;;;-0.70;99.90;;;;;;8371249;28;20399;-80
2022/11/23 05:50:19;;;;;;;58.20;29.07;;;-0.70;99.90;;;;;;8368229;28;20200;-80
2022/11/23 05:54:20;;;;;;;38.50;21.57;;;-0.70;99.90;;;;;;8372556;28;20201;-80
2022/11/23 05:58:20;;;;;;;42.07;21.87;;;-0.70;99.90;;;;;;8360936;28;20197;-80
2022/11/23 06:02:21;;;;;;;31.70;17.53;;;-0.70;99.90;;;;;;8366082;28;20178;-80
2022/11/23 06:06:22;;;;;;;30.60;17.63;;;-0.70;99.90;;;;;;8367876;28;20269;-80
2022/11/23 06:10:23;;;;;;;32.33;17.93;;;-0.60;99.90;;;;;;8369163;28;20181;-79
2022/11/23 06:14:23;;;;;;;30.77;15.97;;;-0.60;99.90;;;;;;8362561;28;20605;-81
2022/11/23 06:18:24;;;;;;;35.93;19.10;;;-0.60;99.90;;;;;;8372756;28;20181;-80
2022/11/23 06:22:25;;;;;;;35.03;18.50;;;-0.50;99.90;;;;;;8370452;28;20173;-80
2022/11/23 06:26:26;;;;;;;35.67;18.73;;;-0.50;99.90;;;;;;8374983;28;20211;-80
2022/11/23 06:30:29;;;;;;;30.83;19.33;;;-0.50;99.90;;;;;;8372864;28;20398;-80
2022/11/23 06:34:29;;;;;;;34.47;19.77;;;-0.40;99.90;;;;;;8369756;28;20209;-80
2022/11/23 06:38:30;;;;;;;51.30;23.53;;;-0.30;99.90;;;;;;8376103;28;20233;-80
2022/11/23 06:42:31;;;;;;;63.27;27.93;;;-0.20;99.90;;;;;;8369685;28;20178;-80
2022/11/23 06:46:32;;;;;;;63.77;28.17;;;-0.20;99.90;;;;;;8373535;28;20182;-80
2022/11/23 06:50:33;;;;;;;48.53;25.27;;;-0.10;99.90;;;;;;8375384;28;20227;-80
2022/11/23 06:54:34;;;;;;;49.93;25.57;;;-0.10;99.90;;;;;;8377319;28;20212;-80
2022/11/23 06:58:35;;;;;;;44.23;24.77;;;0.00;99.90;;;;;;8372790;28;20212;-80
2022/11/23 07:02:36;;;;;;;49.77;28.73;;;0.00;99.90;;;;;;8366246;28;20177;-80
2022/11/23 07:06:40;;;;;;;59.40;33.47;;;0.00;99.90;;;;;;8376720;28;20331;-80
2022/11/23 07:10:41;;;;;;;60.27;32.00;;;0.10;99.90;;;;;;8376153;28;20213;-80
2022/11/23 07:14:41;;;;;;;47.17;26.20;;;0.20;99.90;;;;;;8379197;28;20466;-80
2022/11/23 07:18:42;;;;;;;42.63;25.03;;;0.20;99.90;;;;;;8370482;28;20182;-80
2022/11/23 07:22:43;;;;;;;44.53;24.23;;;0.30;99.90;;;;;;8369734;28;20182;-80
2022/11/23 07:26:44;;;;;;;44.80;24.07;;;0.40;99.90;;;;;;8376891;28;20181;-80
2022/11/23 07:30:44;;;;;;;43.90;24.37;;;0.50;99.90;;;;;;8369999;28;20220;-80
2022/11/23 07:34:45;;;;;;;56.03;28.90;;;0.60;99.90;;;;;;8367643;28;20213;-80
2022/11/23 07:38:46;;;;;;;58.33;31.57;;;0.70;99.90;;;;;;8368829;28;20185;-80
2022/11/23 07:42:47;;;;;;;60.27;32.93;;;0.80;99.90;;;;;;8371053;28;20203;-79
2022/11/23 07:46:48;;;;;;;71.17;38.77;;;0.90;99.90;;;;;;8369969;28;20177;-80
2022/11/23 07:50:52;;;;;;;71.17;38.93;;;1.00;99.90;;;;;;8370261;28;20178;-80
2022/11/23 07:54:53;;;;;;;65.63;37.17;;;1.10;99.90;;;;;;8366147;28;20486;-80
2022/11/23 07:58:54;;;;;;;49.03;29.27;;;1.10;99.90;;;;;;8376220;28;20197;-79
2022/11/23 08:02:57;;;;;;;47.13;27.77;;;1.20;99.90;;;;;;8370901;28;20212;-79
2022/11/23 08:06:59;;;;;;;43.40;25.63;;;1.30;99.90;;;;;;8367922;28;20204;-80
2022/11/23 08:11:00;;;;;;;39.83;22.20;;;1.40;99.90;;;;;;8371194;28;20185;-79
2022/11/23 08:15:01;;;;;;;37.50;21.57;;;1.50;99.90;;;;;;8374173;28;20206;-79
2022/11/23 08:19:01;;;;;;;41.00;24.37;;;1.60;99.90;;;;;;8369967;28;20180;-79
2022/11/23 08:23:02;;;;;;;38.40;23.80;;;1.70;99.90;;;;;;8366541;28;20173;-79
2022/11/23 08:27:03;;;;;;;43.17;24.00;;;1.70;99.90;;;;;;8368652;28;20221;-79
2022/11/23 08:31:10;;;;;;;40.70;25.83;;;1.80;99.90;;;;;;8366667;28;20194;-79
2022/11/23 08:35:10;;;;;;;41.30;23.47;;;1.80;99.90;;;;;;8373357;28;20212;-79
2022/11/23 08:39:13;;;;;;;44.27;26.77;;;1.80;99.90;;;;;;8376674;28;20176;-78
2022/11/23 08:43:14;;;;;;;43.30;24.40;;;1.90;99.90;;;;;;8370782;28;20193;-78
2022/11/23 08:47:15;;;;;;;42.50;26.77;;;1.90;99.90;;;;;;8366239;28;20265;-79
2022/11/23 08:51:21;;;;;;;47.17;27.57;;;2.00;99.90;;;;;;8368522;28;20280;-78
2022/11/23 08:55:23;;;;;;;44.23;25.93;;;2.10;99.90;;;;;;8365547;28;20266;-78
2022/11/23 08:59:24;;;;;;;46.87;28.03;;;2.30;99.90;;;;;;8369634;28;20199;-79
2022/11/23 09:03:25;;;;;;;50.87;29.87;;;2.40;99.90;;;;;;8372005;28;20181;-78
2022/11/23 09:07:25;;;;;;;47.87;28.23;;;2.50;99.90;;;;;;8373694;28;20241;-79
2022/11/23 09:11:26;;;;;;;48.00;28.47;;;2.60;99.90;;;;;;8367211;28;20245;-78
2022/11/23 09:15:27;;;;;;;45.17;27.17;;;2.70;99.90;;;;;;8365406;28;20216;-78
2022/11/23 09:19:28;;;;;;;41.80;25.03;;;2.90;99.90;;;;;;8371136;28;20174;-78
2022/11/23 09:23:29;;;;;;;38.30;24.43;;;3.00;99.90;;;;;;8369302;28;20182;-78
2022/11/23 09:27:30;;;;;;;34.67;21.90;;;3.10;99.90;;;;;;8365789;28;20603;-79
2022/11/23 09:31:31;;;;;;;37.17;22.80;;;3.30;99.90;;;;;;8368566;28;20181;-79
2022/11/23 09:35:32;;;;;;;39.80;23.83;;;3.40;99.90;;;;;;8360932;28;20208;-79
2022/11/23 09:39:33;;;;;;;37.20;22.73;;;3.50;99.90;;;;;;8363643;28;20184;-78
2022/11/23 09:43:48;;;;;;;41.13;25.17;;;3.50;99.90;;;;;;8366071;28;20327;-78
2022/11/23 09:48:00;;;;;;;39.60;23.37;;;3.70;99.90;;;;;;8361357;28;20409;-79
2022/11/23 09:52:01;;;;;;;36.07;22.67;;;3.70;99.90;;;;;;8368076;28;20178;-79
2022/11/23 09:56:02;;;;;;;31.77;21.23;;;3.80;99.90;;;;;;8367447;28;20222;-79
2022/11/23 10:00:15;;;;;;;32.63;20.37;;;4.00;99.90;;;;;;8373002;28;20236;-79
2022/11/23 10:04:18;;;;;;;49.23;28.40;;;4.10;99.90;;;;;;8372446;28;20253;-78
2022/11/23 10:08:38;;;;;;;42.43;26.77;;;4.10;99.90;;;;;;8371441;28;20192;-79
2022/11/23 10:13:06;;;;;;;42.93;24.93;;;4.20;99.90;;;;;;8378464;28;20173;-79
2022/11/23 10:17:38;;;;;;;44.03;28.40;;;4.20;99.90;;;;;;8378087;28;20182;-79
2022/11/23 10:21:57;;;;;;;40.77;24.73;;;4.20;99.90;;;;;;8377367;28;20212;-79
2022/11/23 10:25:59;;;;;;;46.87;26.90;;;4.30;99.90;;;;;;8373403;28;20203;-79
2022/11/23 10:30:00;;;;;;;53.23;29.90;;;4.30;99.90;;;;;;8373680;28;20196;-79
2022/11/23 10:34:13;;;;;;;37.03;24.77;;;4.40;99.90;;;;;;8371524;28;20236;-79
2022/11/23 10:38:15;;;;;;;41.73;26.03;;;4.40;99.90;;;;;;8375653;28;20178;-79
2022/11/23 10:42:41;;;;;;;57.53;31.13;;;4.50;99.90;;;;;;8378770;28;20181;-79
2022/11/23 10:46:42;;;;;;;52.93;29.60;;;4.60;99.90;;;;;;8373682;28;20186;-79
2022/11/23 10:50:43;;;;;;;53.83;31.97;;;4.70;99.90;;;;;;8372894;28;20213;-78
2022/11/23 10:54:52;;;;;;;66.60;35.53;;;4.80;99.90;;;;;;8368258;28;20259;-78
2022/11/23 10:58:54;;;;;;;63.37;34.30;;;4.90;99.90;;;;;;8368228;28;20259;-78
2022/11/23 11:02:56;;;;;;;79.73;41.17;;;5.10;99.90;;;;;;8374700;28;20200;-78
2022/11/23 11:07:23;;;;;;;74.77;39.53;;;5.10;99.90;;;;;;8372636;28;20313;-78
2022/11/23 11:11:33;;;;;;;69.03;39.80;;;5.30;99.90;;;;;;8373491;28;20170;-79
2022/11/23 11:15:33;;;;;;;83.67;44.33;;;5.40;99.90;;;;;;8362834;28;20209;-78
2022/11/23 11:19:36;;;;;;;61.63;31.43;;;5.30;99.90;;;;;;8368194;28;20186;-79
2022/11/23 11:23:40;;;;;;;43.63;26.90;;;5.40;99.90;;;;;;8368308;28;20370;-79
2022/11/23 11:27:50;;;;;;;34.43;21.47;;;5.50;99.90;;;;;;8371515;28;20189;-79
2022/11/23 11:32:08;;;;;;;40.07;26.33;;;5.50;99.90;;;;;;8377882;28;20181;-79
2022/11/23 11:36:14;;;;;;;37.90;25.97;;;5.60;99.90;;;;;;8375880;28;20209;-79
2022/11/23 11:40:46;;;;;;;34.73;24.30;;;5.70;99.90;;;;;;8366242;28;20167;-80
2022/11/23 11:44:51;;;;;;;34.67;23.63;;;5.60;99.90;;;;;;8370643;28;20192;-80
2022/11/23 11:49:11;;;;;;;37.03;25.00;;;5.60;99.90;;;;;;8370454;28;20181;-79
2022/11/23 11:53:17;;;;;;;40.80;26.23;;;5.60;99.90;;;;;;8373225;28;20209;-80
2022/11/23 11:57:43;;;;;;;41.60;26.47;;;5.70;99.90;;;;;;8373872;28;20225;-79
2022/11/23 12:01:56;;;;;;;101.63;53.60;;;5.80;99.90;;;;;;8364200;28;20276;-79
2022/11/23 12:06:06;;;;;;;81.80;47.40;;;5.80;99.90;;;;;;8368481;28;20188;-79
2022/11/23 12:10:39;;;;;;;48.03;30.30;;;5.80;99.90;;;;;;8371228;28;20189;-79
2022/11/23 12:14:40;;;;;;;41.47;26.90;;;5.80;99.90;;;;;;8368730;28;20228;-79
2022/11/23 12:19:02;;;;;;;43.03;25.63;;;5.80;99.90;;;;;;8367610;28;20220;-80
2022/11/23 12:23:27;;;;;;;42.63;26.60;;;5.70;99.90;;;;;;8369879;28;20177;-79
2022/11/23 12:27:59;;;;;;;38.90;25.73;;;5.70;99.90;;;;;;8366807;28;20194;-80
2022/11/23 12:32:24;;;;;;;35.23;24.23;;;5.70;99.90;;;;;;8367870;28;20186;-79
2022/11/23 12:36:49;;;;;;;36.13;24.07;;;5.80;99.90;;;;;;8372736;28;20483;-79
2022/11/23 12:41:08;;;;;;;29.90;21.03;;;5.80;99.90;;;;;;8373442;28;20182;-79
2022/11/23 12:45:44;;;;;;;33.03;22.50;;;5.80;99.90;;;;;;8366221;28;20182;-79
2022/11/23 12:50:03;;;;;;;31.57;20.57;;;5.90;99.90;;;;;;8363855;28;20239;-79
2022/11/23 12:54:37;;;;;;;38.73;25.13;;;5.90;99.90;;;;;;8369082;28;20217;-79
2022/11/23 12:58:39;;;;;;;36.23;23.67;;;5.80;99.90;;;;;;8363382;28;20212;-79
2022/11/23 13:02:46;;;;;;;36.57;25.50;;;5.80;99.90;;;;;;8371788;28;20187;-79
2022/11/23 13:07:47;;;;;;;37.43;23.63;;;5.80;99.90;;;;;;8371225;28;20178;-80
2022/11/23 13:12:12;;;;;;;38.93;25.70;;;5.80;99.90;;;;;;8352643;28;20216;-80
2022/11/23 13:16:42;;;;;;;37.10;24.33;;;5.90;99.90;;;;;;8369924;28;20207;-80
2022/11/23 13:21:21;;;;;;;37.43;24.50;;;5.90;99.90;;;;;;8374309;28;20456;-80
2022/11/23 13:25:27;;;;;;;42.50;27.23;;;5.90;99.90;;;;;;8370629;28;20193;-78
2022/11/23 13:29:48;;;;;;;44.63;29.57;;;5.90;99.90;;;;;;8378931;28;20204;-78
2022/11/23 13:33:52;;;;;;;40.70;25.17;;;5.90;99.90;;;;;;8360013;28;20209;-79
2022/11/23 13:37:55;;;;;;;39.00;25.27;;;5.90;99.90;;;;;;8370859;28;20205;-79
2022/11/23 13:42:00;;;;;;;48.67;30.87;;;5.90;99.90;;;;;;8373349;28;20260;-79
2022/11/23 13:46:31;;;;;;;40.03;26.97;;;5.90;99.90;;;;;;8375025;28;20245;-79
2022/11/23 13:50:32;;;;;;;34.83;22.63;;;5.80;99.90;;;;;;8361775;28;20272;-79
2022/11/23 13:54:33;;;;;;;51.23;31.33;;;5.80;99.90;;;;;;8377630;28;20213;-79
2022/11/23 13:58:37;;;;;;;46.50;28.20;;;5.70;99.90;;;;;;8368850;28;20208;-79
2022/11/23 14:02:38;;;;;;;41.43;27.77;;;5.60;99.90;;;;;;8366503;28;20526;-79
2022/11/23 14:06:50;;;;;;;38.20;25.67;;;5.50;99.90;;;;;;8369555;28;20265;-79
2022/11/23 14:10:52;;;;;;;40.90;24.73;;;5.40;99.90;;;;;;8374873;28;20213;-79
2022/11/23 14:15:10;;;;;;;35.70;23.33;;;5.30;99.90;;;;;;8369486;28;20209;-79
2022/11/23 14:19:44;;;;;;;36.27;23.17;;;5.20;99.90;;;;;;8365776;28;20233;-79
2022/11/23 14:24:41;;;;;;;37.37;23.67;;;5.10;99.90;;;;;;8365913;28;20276;-79
2022/11/23 14:29:17;;;;;;;36.60;23.10;;;4.90;99.90;;;;;;8356869;28;20244;-79
2022/11/23 14:33:45;;;;;;;35.37;22.20;;;4.80;99.90;;;;;;8365051;28;20232;-79
2022/11/23 14:38:21;;;;;;;47.40;28.97;;;4.70;99.90;;;;;;8363618;28;20182;-79
2022/11/23 14:42:26;;;;;;;63.53;35.43;;;4.50;99.90;;;;;;8369853;28;20201;-79
2022/11/23 14:46:27;;;;;;;62.90;38.70;;;4.40;99.90;;;;;;8368822;28;20268;-79
2022/11/23 14:50:28;;;;;;;65.10;39.00;;;4.20;99.90;;;;;;8374061;28;20185;-78
2022/11/23 14:54:30;;;;;;;64.43;38.33;;;4.10;99.90;;;;;;8373866;28;20229;-80
2022/11/23 14:58:32;;;;;;;57.53;35.30;;;3.90;99.90;;;;;;8372409;28;20201;-79
2022/11/23 15:02:39;;;;;;;52.93;33.27;;;3.80;99.90;;;;;;8378358;28;20319;-79
2022/11/23 15:06:45;;;;;;;88.23;48.00;;;3.60;99.90;;;;;;8389334;28;20192;-79
2022/11/23 15:11:06;;;;;;;121.87;57.13;;;3.40;99.90;;;;;;8379617;28;20177;-79
2022/11/23 15:15:25;;;;;;;116.60;54.23;;;3.30;99.90;;;;;;8377540;28;20202;-79
2022/11/23 15:19:28;;;;;;;98.13;46.90;;;3.10;99.90;;;;;;8373986;28;20170;-79
2022/11/23 15:23:44;;;;;;;65.40;37.83;;;2.90;99.90;;;;;;8377657;28;20184;-79
2022/11/23 15:27:50;;;;;;;53.23;31.73;;;2.80;99.90;;;;;;8368218;28;20193;-79
2022/11/23 15:31:50;;;;;;;44.90;28.07;;;2.60;99.90;;;;;;8364170;28;20220;-79
2022/11/23 15:35:53;;;;;;;39.33;24.87;;;2.40;99.90;;;;;;8367697;28;20200;-79
2022/11/23 15:39:55;;;;;;;37.60;23.33;;;2.30;99.90;;;;;;8369339;28;20181;-79
2022/11/23 15:43:58;;;;;;;42.13;24.60;;;2.10;99.90;;;;;;8388991;28;20203;-79
2022/11/23 15:48:01;;;;;;;39.13;25.23;;;2.00;99.90;;;;;;8373541;28;20193;-79
2022/11/23 15:52:03;;;;;;;40.43;25.03;;;1.90;99.90;;;;;;8373092;28;20187;-79
2022/11/23 15:56:05;;;;;;;40.17;24.70;;;1.80;99.90;;;;;;8372568;28;20216;-79
2022/11/23 16:00:08;;;;;;;38.07;24.37;;;1.70;99.90;;;;;;8370667;28;20201;-80
2022/11/23 16:04:42;;;;;;;38.73;23.30;;;1.50;99.90;;;;;;8373612;28;20216;-80
2022/11/23 16:08:44;;;;;;;43.00;24.37;;;1.40;99.90;;;;;;8342223;28;20197;-79
2022/11/23 16:12:48;;;;;;;43.73;25.50;;;1.30;99.90;;;;;;8370367;28;20322;-79
2022/11/23 16:17:11;;;;;;;57.50;31.67;;;1.20;99.90;;;;;;8374648;28;20237;-79
2022/11/23 16:21:18;;;;;;;61.43;35.53;;;1.00;99.90;;;;;;8364168;28;20277;-79
2022/11/23 16:25:27;;;;;;;66.57;38.70;;;0.90;99.90;;;;;;8366426;28;20185;-78
2022/11/23 16:29:34;;;;;;;61.20;37.03;;;0.80;99.90;;;;;;8366753;28;20211;-79
2022/11/23 16:33:35;;;;;;;53.70;31.93;;;0.70;99.90;;;;;;8370442;28;20252;-79
2022/11/23 16:37:36;;;;;;;61.20;36.03;;;0.60;99.90;;;;;;8371458;28;20188;-79
2022/11/23 16:41:37;;;;;;;62.50;37.40;;;0.60;99.90;;;;;;8370010;28;20183;-79
2022/11/23 16:45:40;;;;;;;56.10;34.40;;;0.50;99.90;;;;;;8372227;28;20215;-79
2022/11/23 16:49:41;;;;;;;52.53;30.37;;;0.40;99.90;;;;;;8365752;28;20177;-79
2022/11/23 16:53:44;;;;;;;48.50;27.93;;;0.40;99.90;;;;;;8370402;28;20197;-79
2022/11/23 16:57:46;;;;;;;50.23;29.37;;;0.30;99.90;;;;;;8374090;28;20194;-79
2022/11/23 17:01:49;;;;;;;44.97;26.03;;;0.20;99.90;;;;;;8369546;28;20181;-79
2022/11/23 17:05:50;;;;;;;44.97;25.77;;;0.10;99.90;;;;;;8373397;28;20219;-79
2022/11/23 17:09:50;;;;;;;48.07;28.40;;;0.10;99.90;;;;;;8370212;28;20182;-80
2022/11/23 17:13:53;;;;;;;50.93;29.53;;;0.10;99.90;;;;;;8369927;28;20211;-80
2022/11/23 17:17:54;;;;;;;61.07;32.53;;;0.10;99.90;;;;;;8371260;28;20173;-80
2022/11/23 17:21:55;;;;;;;54.17;30.57;;;0.10;99.90;;;;;;8369001;28;20589;-80
2022/11/23 17:25:56;;;;;;;54.00;31.07;;;0.00;99.90;;;;;;8366751;28;20276;-80
2022/11/23 17:30:00;;;;;;;52.57;29.40;;;0.00;99.90;;;;;;8374022;28;20247;-80
2022/11/23 17:34:01;;;;;;;48.03;27.87;;;-0.10;99.90;;;;;;8371425;28;20205;-80
2022/11/23 17:38:02;;;;;;;50.47;27.30;;;-0.10;99.90;;;;;;8373515;28;20260;-81
2022/11/23 17:42:03;;;;;;;51.20;29.40;;;-0.20;99.90;;;;;;8373357;28;20174;-79
2022/11/23 17:46:04;;;;;;;53.80;29.63;;;-0.20;99.90;;;;;;8364999;28;20221;-81
2022/11/23 17:50:09;;;;;;;55.13;31.67;;;-0.30;99.90;;;;;;8367052;28;20234;-80
2022/11/23 17:54:11;;;;;;;55.90;31.10;;;-0.30;99.90;;;;;;8373374;28;20197;-81
2022/11/23 17:58:11;;;;;;;57.53;34.23;;;-0.40;99.90;;;;;;8374214;28;20213;-81
2022/11/23 18:02:12;;;;;;;58.43;38.13;;;-0.40;99.90;;;;;;8364935;28;20173;-81
2022/11/23 18:06:15;;;;;;;124.83;63.63;;;-0.40;99.90;;;;;;8367103;28;20214;-81
2022/11/23 18:10:17;;;;;;;107.73;53.00;;;-0.30;99.90;;;;;;8374199;28;20209;-81
2022/11/23 18:14:18;;;;;;;105.70;56.90;;;-0.20;99.90;;;;;;8365094;28;20487;-81
2022/11/23 18:18:19;;;;;;;98.90;54.13;;;-0.10;99.90;;;;;;8368064;28;20174;-80
2022/11/23 18:22:20;;;;;;;87.00;48.70;;;0.00;99.90;;;;;;8370969;28;20188;-80
2022/11/23 18:26:24;;;;;;;71.00;39.50;;;0.20;99.90;;;;;;8370173;28;20182;-80
2022/11/23 18:30:25;;;;;;;67.27;37.40;;;0.30;99.90;;;;;;8370577;28;20200;-81
2022/11/23 18:34:26;;;;;;;58.50;36.07;;;0.30;99.90;;;;;;8374075;28;20233;-80
2022/11/23 18:38:27;;;;;;;104.43;51.93;;;0.40;99.90;;;;;;8378224;28;20482;-80
2022/11/23 18:42:28;;;;;;;124.60;59.57;;;0.60;99.90;;;;;;8378216;28;20188;-81
2022/11/23 18:46:30;;;;;;;122.30;62.33;;;0.80;99.90;;;;;;8375902;28;20650;-80
2022/11/23 18:50:31;;;;;;;230.23;113.20;;;0.80;99.90;;;;;;8374713;28;20189;-80
2022/11/23 18:54:32;;;;;;;275.10;146.53;;;0.90;99.90;;;;;;8374929;28;20209;-81
2022/11/23 18:58:38;;;;;;;278.70;144.87;;;0.80;99.90;;;;;;8374135;28;20205;-80
2022/11/23 19:02:39;;;;;;;326.57;174.37;;;0.90;99.90;;;;;;8366719;28;20192;-80
2022/11/23 19:06:40;;;;;;;272.03;144.07;;;0.90;99.90;;;;;;8367366;28;20186;-80
2022/11/23 19:10:41;;;;;;;192.53;101.13;;;1.00;99.90;;;;;;8374434;28;20185;-80
2022/11/23 19:14:44;;;;;;;147.17;74.17;;;1.20;99.90;;;;;;8375252;28;20208;-79
2022/11/23 19:18:47;;;;;;;110.00;56.73;;;1.30;99.90;;;;;;8369006;28;20178;-79
2022/11/23 19:22:51;;;;;;;107.83;52.77;;;1.40;99.90;;;;;;8370625;28;20201;-80
2022/11/23 19:26:52;;;;;;;88.80;49.30;;;1.50;99.90;;;;;;8377526;28;20188;-80
2022/11/23 19:30:56;;;;;;;93.67;50.57;;;1.50;99.90;;;;;;8377593;28;20235;-80
2022/11/23 19:34:57;;;;;;;86.53;48.70;;;1.60;99.90;;;;;;8372748;28;20300;-80
2022/11/23 19:39:01;;;;;;;73.27;43.20;;;1.60;99.90;;;;;;8373941;28;20185;-80
2022/11/23 19:43:02;;;;;;;85.93;45.47;;;1.60;99.90;;;;;;8377681;28;20547;-80
2022/11/23 19:47:03;;;;;;;81.83;43.87;;;1.60;99.90;;;;;;8369800;28;20181;-79
2022/11/23 19:51:07;;;;;;;100.63;51.13;;;1.60;99.90;;;;;;8370043;28;20179;-78
2022/11/23 19:55:08;;;;;;;96.83;50.53;;;1.60;99.90;;;;;;8368973;28;20508;-79
2022/11/23 19:59:09;;;;;;;114.47;60.07;;;1.60;99.90;;;;;;8375971;28;20202;-79
2022/11/23 20:03:13;;;;;;;99.83;51.73;;;1.60;99.90;;;;;;8368759;28;20177;-79
2022/11/23 20:07:14;;;;;;;101.50;54.57;;;1.60;99.90;;;;;;8362020;28;20190;-79
2022/11/23 20:11:16;;;;;;;112.23;55.63;;;1.70;99.90;;;;;;8377420;28;20331;-79
2022/11/23 20:15:17;;;;;;;88.10;46.87;;;1.70;99.90;;;;;;8356319;28;20548;-79
2022/11/23 20:19:17;;;;;;;100.67;47.83;;;1.60;99.90;;;;;;8374944;28;20181;-79
2022/11/23 20:23:18;;;;;;;86.97;44.40;;;1.60;99.90;;;;;;8366086;28;20186;-79
2022/11/23 20:27:20;;;;;;;86.30;42.17;;;1.60;99.90;;;;;;8368642;28;20181;-79
2022/11/23 20:31:26;;;;;;;86.50;42.87;;;1.60;99.90;;;;;;8369521;28;20204;-79
2022/11/23 20:35:28;;;;;;;80.50;42.67;;;1.60;99.90;;;;;;8367003;28;20580;-79
2022/11/23 20:39:28;;;;;;;82.57;43.80;;;1.70;99.90;;;;;;8375196;28;20535;-79
2022/11/23 20:43:31;;;;;;;83.63;42.83;;;1.70;99.90;;;;;;8372673;28;20206;-79
2022/11/23 20:47:31;;;;;;;79.23;41.60;;;1.70;99.90;;;;;;8372929;28;20177;-79
2022/11/23 20:51:33;;;;;;;78.40;40.33;;;1.70;99.90;;;;;;8367621;28;20216;-79
2022/11/23 20:55:33;;;;;;;77.50;39.00;;;1.70;99.90;;;;;;8367577;28;20626;-79